sensor_id;sensor_type;location;lat;lon;timestamp;temperature;humidity
9410;DHT22;4744;52.576;13.568;2023-09-07T00:01:54;17.30;1.00
9410;DHT22;4744;52.576;13.568;2023-09-07T00:04:21;17.30;1.00
9410;DHT22;4744;52.576;13.568;2023-09-07T00:06:48;17.30;1.00
9410;DHT22;4744;52.576;13.568;2023-09-07T00:09:24;17.30;1.00
9410;DHT22;4744;52.576;13.568;2023-09-07T00:11:54;17.30;1.00
9410;DHT22;4744;52.576;13.568;2023-09-07T00:14:21;17.30;1.00
9410;DHT22;4744;52.576;13.568;2023-09-07T00:16:48;17.20;1.00
9410;DHT22;4744;52.576;13.568;2023-09-07T00:19:15;17.10;1.00
9410;DHT22;4744;52.576;13.568;2023-09-07T00:21:42;17.10;1.00
9410;DHT22;4744;52.576;13.568;2023-09-07T00:24:09;17.00;1.00
9410;DHT22;4744;52.576;13.568;2023-09-07T00:26:37;17.00;1.00
9410;DHT22;4744;52.576;13.568;2023-09-07T00:29:06;17.00;1.00
9410;DHT22;4744;52.576;13.568;2023-09-07T00:31:33;16.90;1.00
9410;DHT22;4744;52.576;13.568;2023-09-07T00:33:59;16.90;1.00
9410;DHT22;4744;52.576;13.568;2023-09-07T00:36:26;16.90;1.00
9410;DHT22;4744;52.576;13.568;2023-09-07T00:38:53;16.90;1.00
9410;DHT22;4744;52.576;13.568;2023-09-07T00:41:23;16.80;1.00
9410;DHT22;4744;52.576;13.568;2023-09-07T00:43:56;16.80;1.00
9410;DHT22;4744;52.576;13.568;2023-09-07T00:46:23;16.80;1.00
9410;DHT22;4744;52.576;13.568;2023-09-07T00:48:50;16.70;1.00
9410;DHT22;4744;52.576;13.568;2023-09-07T00:51:17;16.70;1.00
9410;DHT22;4744;52.576;13.568;2023-09-07T00:53:44;16.60;1.00
9410;DHT22;4744;52.576;13.568;2023-09-07T00:56:11;16.50;1.00
9410;DHT22;4744;52.576;13.568;2023-09-07T00:58:38;16.50;1.00
9410;DHT22;4744;52.576;13.568;2023-09-07T01:01:07;16.50;1.00
9410;DHT22;4744;52.576;13.568;2023-09-07T01:03:37;16.40;1.00
9410;DHT22;4744;52.576;13.568;2023-09-07T01:06:13;16.40;1.00
9410;DHT22;4744;52.576;13.568;2023-09-07T01:08:44;16.30;1.00
9410;DHT22;4744;52.576;13.568;2023-09-07T01:11:14;16.20;1.00
9410;DHT22;4744;52.576;13.568;2023-09-07T01:13:41;16.20;1.00
9410;DHT22;4744;52.576;13.568;2023-09-07T01:16:11;16.10;1.00
9410;DHT22;4744;52.576;13.568;2023-09-07T01:18:39;16.10;1.00
9410;DHT22;4744;52.576;13.568;2023-09-07T01:21:06;16.10;1.00
9410;DHT22;4744;52.576;13.568;2023-09-07T01:23:35;16.10;1.00
9410;DHT22;4744;52.576;13.568;2023-09-07T01:26:03;16.00;1.00
9410;DHT22;4744;52.576;13.568;2023-09-07T01:28:30;16.00;1.00
9410;DHT22;4744;52.576;13.568;2023-09-07T01:30:57;16.00;1.00
9410;DHT22;4744;52.576;13.568;2023-09-07T01:33:24;16.00;1.00
9410;DHT22;4744;52.576;13.568;2023-09-07T01:35:51;16.00;1.00
9410;DHT22;4744;52.576;13.568;2023-09-07T01:38:18;16.00;1.00
9410;DHT22;4744;52.576;13.568;2023-09-07T01:40:49;15.90;1.00
9410;DHT22;4744;52.576;13.568;2023-09-07T01:43:19;16.00;1.00
9410;DHT22;4744;52.576;13.568;2023-09-07T01:45:53;16.00;1.00
9410;DHT22;4744;52.576;13.568;2023-09-07T01:48:23;16.00;1.00
9410;DHT22;4744;52.576;13.568;2023-09-07T01:50:52;16.00;1.00
9410;DHT22;4744;52.576;13.568;2023-09-07T01:53:19;16.00;1.00
9410;DHT22;4744;52.576;13.568;2023-09-07T01:55:46;16.00;1.00
9410;DHT22;4744;52.576;13.568;2023-09-07T01:58:14;15.90;1.00
9410;DHT22;4744;52.576;13.568;2023-09-07T02:00:52;15.90;1.00
9410;DHT22;4744;52.576;13.568;2023-09-07T02:03:24;16.00;1.00
9410;DHT22;4744;52.576;13.568;2023-09-07T02:05:52;16.00;1.00
9410;DHT22;4744;52.576;13.568;2023-09-07T02:08:19;16.00;1.00
9410;DHT22;4744;52.576;13.568;2023-09-07T02:10:46;15.90;1.00
9410;DHT22;4744;52.576;13.568;2023-09-07T02:13:14;15.90;1.00
9410;DHT22;4744;52.576;13.568;2023-09-07T02:15:41;15.90;1.00
9410;DHT22;4744;52.576;13.568;2023-09-07T02:18:20;15.80;1.00
9410;DHT22;4744;52.576;13.568;2023-09-07T02:20:50;15.70;1.00
9410;DHT22;4744;52.576;13.568;2023-09-07T02:23:23;15.70;1.00
9410;DHT22;4744;52.576;13.568;2023-09-07T02:25:50;15.70;1.00
9410;DHT22;4744;52.576;13.568;2023-09-07T02:28:18;15.70;1.00
9410;DHT22;4744;52.576;13.568;2023-09-07T02:30:45;15.70;1.00
9410;DHT22;4744;52.576;13.568;2023-09-07T02:33:12;15.70;1.00
9410;DHT22;4744;52.576;13.568;2023-09-07T02:35:38;15.70;1.00
9410;DHT22;4744;52.576;13.568;2023-09-07T02:38:12;15.60;1.00
9410;DHT22;4744;52.576;13.568;2023-09-07T02:40:43;15.60;1.00
9410;DHT22;4744;52.576;13.568;2023-09-07T02:43:15;15.60;1.00
9410;DHT22;4744;52.576;13.568;2023-09-07T02:45:44;15.60;1.00
9410;DHT22;4744;52.576;13.568;2023-09-07T02:48:11;15.60;1.00
9410;DHT22;4744;52.576;13.568;2023-09-07T02:50:38;15.70;1.00
9410;DHT22;4744;52.576;13.568;2023-09-07T02:53:05;15.70;1.00
9410;DHT22;4744;52.576;13.568;2023-09-07T02:55:32;15.70;1.00
9410;DHT22;4744;52.576;13.568;2023-09-07T02:58:07;15.70;1.00
9410;DHT22;4744;52.576;13.568;2023-09-07T03:00:52;15.70;1.00
9410;DHT22;4744;52.576;13.568;2023-09-07T03:03:20;15.70;1.00
9410;DHT22;4744;52.576;13.568;2023-09-07T03:05:47;15.70;1.00
9410;DHT22;4744;52.576;13.568;2023-09-07T03:08:14;15.70;1.00
9410;DHT22;4744;52.576;13.568;2023-09-07T03:10:41;15.70;1.00
9410;DHT22;4744;52.576;13.568;2023-09-07T03:13:09;15.60;1.00
9410;DHT22;4744;52.576;13.568;2023-09-07T03:15:36;15.60;1.00
9410;DHT22;4744;52.576;13.568;2023-09-07T03:18:05;15.60;1.00
9410;DHT22;4744;52.576;13.568;2023-09-07T03:20:42;15.60;1.00
9410;DHT22;4744;52.576;13.568;2023-09-07T03:23:11;15.50;1.00
9410;DHT22;4744;52.576;13.568;2023-09-07T03:25:37;15.50;1.00
9410;DHT22;4744;52.576;13.568;2023-09-07T03:28:05;15.50;1.00
9410;DHT22;4744;52.576;13.568;2023-09-07T03:30:32;15.50;1.00
9410;DHT22;4744;52.576;13.568;2023-09-07T03:32:59;15.50;1.00
9410;DHT22;4744;52.576;13.568;2023-09-07T03:35:28;15.50;1.00
9410;DHT22;4744;52.576;13.568;2023-09-07T03:37:55;15.50;1.00
9410;DHT22;4744;52.576;13.568;2023-09-07T03:40:23;15.50;1.00
9410;DHT22;4744;52.576;13.568;2023-09-07T03:43:00;15.50;1.00
9410;DHT22;4744;52.576;13.568;2023-09-07T03:45:37;15.50;1.00
9410;DHT22;4744;52.576;13.568;2023-09-07T03:48:08;15.40;1.00
9410;DHT22;4744;52.576;13.568;2023-09-07T03:50:37;15.40;1.00
9410;DHT22;4744;52.576;13.568;2023-09-07T03:53:08;15.40;1.00
9410;DHT22;4744;52.576;13.568;2023-09-07T03:55:41;15.30;1.00
9410;DHT22;4744;52.576;13.568;2023-09-07T03:58:14;15.30;1.00
9410;DHT22;4744;52.576;13.568;2023-09-07T04:00:41;15.30;1.00
9410;DHT22;4744;52.576;13.568;2023-09-07T04:03:24;15.30;1.00
9410;DHT22;4744;52.576;13.568;2023-09-07T04:06:14;15.30;1.00
9410;DHT22;4744;52.576;13.568;2023-09-07T04:08:58;15.20;1.00
9410;DHT22;4744;52.576;13.568;2023-09-07T04:11:33;15.20;1.00
9410;DHT22;4744;52.576;13.568;2023-09-07T04:14:12;15.20;1.00
9410;DHT22;4744;52.576;13.568;2023-09-07T04:16:39;15.20;1.00
9410;DHT22;4744;52.576;13.568;2023-09-07T04:19:06;15.20;1.00
9410;DHT22;4744;52.576;13.568;2023-09-07T04:21:45;15.20;1.00
9410;DHT22;4744;52.576;13.568;2023-09-07T04:24:18;15.20;1.00
9410;DHT22;4744;52.576;13.568;2023-09-07T04:26:47;15.20;1.00
9410;DHT22;4744;52.576;13.568;2023-09-07T04:29:14;15.20;1.00
9410;DHT22;4744;52.576;13.568;2023-09-07T04:31:42;15.20;1.00
9410;DHT22;4744;52.576;13.568;2023-09-07T04:34:16;15.20;1.00
9410;DHT22;4744;52.576;13.568;2023-09-07T04:36:46;15.20;1.00
9410;DHT22;4744;52.576;13.568;2023-09-07T04:39:13;15.30;1.00
9410;DHT22;4744;52.576;13.568;2023-09-07T04:41:40;15.30;1.00
9410;DHT22;4744;52.576;13.568;2023-09-07T04:44:11;15.30;1.00
9410;DHT22;4744;52.576;13.568;2023-09-07T04:46:41;15.30;1.00
9410;DHT22;4744;52.576;13.568;2023-09-07T04:49:10;15.40;1.00
9410;DHT22;4744;52.576;13.568;2023-09-07T04:51:40;15.40;1.00
9410;DHT22;4744;52.576;13.568;2023-09-07T04:54:08;15.40;1.00
9410;DHT22;4744;52.576;13.568;2023-09-07T04:56:36;15.50;1.00
9410;DHT22;4744;52.576;13.568;2023-09-07T04:59:13;15.50;1.00
9410;DHT22;4744;52.576;13.568;2023-09-07T05:01:50;15.60;1.00
9410;DHT22;4744;52.576;13.568;2023-09-07T05:04:20;15.60;1.00
9410;DHT22;4744;52.576;13.568;2023-09-07T05:06:46;15.60;1.00
9410;DHT22;4744;52.576;13.568;2023-09-07T05:09:23;15.70;1.00
9410;DHT22;4744;52.576;13.568;2023-09-07T05:11:51;15.70;1.00
9410;DHT22;4744;52.576;13.568;2023-09-07T05:14:21;15.80;1.00
9410;DHT22;4744;52.576;13.568;2023-09-07T05:16:58;15.80;1.00
9410;DHT22;4744;52.576;13.568;2023-09-07T05:19:25;15.90;1.00
9410;DHT22;4744;52.576;13.568;2023-09-07T05:21:52;15.90;1.00
9410;DHT22;4744;52.576;13.568;2023-09-07T05:24:22;16.00;1.00
9410;DHT22;4744;52.576;13.568;2023-09-07T05:26:55;16.10;1.00
9410;DHT22;4744;52.576;13.568;2023-09-07T05:32:32;16.30;1.00
9410;DHT22;4744;52.576;13.568;2023-09-07T05:34:59;16.30;1.00
9410;DHT22;4744;52.576;13.568;2023-09-07T05:37:31;16.50;1.00
9410;DHT22;4744;52.576;13.568;2023-09-07T05:40:00;16.50;1.00
9410;DHT22;4744;52.576;13.568;2023-09-07T05:42:38;16.60;1.00
9410;DHT22;4744;52.576;13.568;2023-09-07T05:45:09;16.70;1.00
9410;DHT22;4744;52.576;13.568;2023-09-07T05:47:44;16.90;1.00
9410;DHT22;4744;52.576;13.568;2023-09-07T05:50:19;17.00;1.00
9410;DHT22;4744;52.576;13.568;2023-09-07T05:52:57;17.10;1.00
9410;DHT22;4744;52.576;13.568;2023-09-07T05:55:32;17.20;1.00
9410;DHT22;4744;52.576;13.568;2023-09-07T05:58:05;17.40;1.00
9410;DHT22;4744;52.576;13.568;2023-09-07T06:00:32;17.50;1.00
9410;DHT22;4744;52.576;13.568;2023-09-07T06:03:00;17.60;1.00
9410;DHT22;4744;52.576;13.568;2023-09-07T06:05:27;17.70;1.00
9410;DHT22;4744;52.576;13.568;2023-09-07T06:07:54;17.90;1.00
9410;DHT22;4744;52.576;13.568;2023-09-07T06:10:32;18.00;1.00
9410;DHT22;4744;52.576;13.568;2023-09-07T06:13:10;18.10;1.00
9410;DHT22;4744;52.576;13.568;2023-09-07T06:15:38;18.30;1.00
9410;DHT22;4744;52.576;13.568;2023-09-07T06:18:07;18.40;1.00
9410;DHT22;4744;52.576;13.568;2023-09-07T06:20:39;18.60;1.00
9410;DHT22;4744;52.576;13.568;2023-09-07T06:23:07;18.70;1.00
9410;DHT22;4744;52.576;13.568;2023-09-07T06:25:37;18.90;1.00
9410;DHT22;4744;52.576;13.568;2023-09-07T06:28:04;19.00;1.00
9410;DHT22;4744;52.576;13.568;2023-09-07T06:30:40;19.10;1.00
9410;DHT22;4744;52.576;13.568;2023-09-07T06:33:15;19.30;1.00
9410;DHT22;4744;52.576;13.568;2023-09-07T06:35:51;19.40;1.00
9410;DHT22;4744;52.576;13.568;2023-09-07T06:38:18;19.50;1.00
9410;DHT22;4744;52.576;13.568;2023-09-07T06:40:49;19.60;1.00
9410;DHT22;4744;52.576;13.568;2023-09-07T06:43:16;19.70;1.00
9410;DHT22;4744;52.576;13.568;2023-09-07T06:45:43;19.90;1.00
9410;DHT22;4744;52.576;13.568;2023-09-07T06:48:11;20.00;1.00
9410;DHT22;4744;52.576;13.568;2023-09-07T06:50:40;20.10;1.00
9410;DHT22;4744;52.576;13.568;2023-09-07T06:53:07;20.10;1.00
9410;DHT22;4744;52.576;13.568;2023-09-07T06:55:34;20.20;1.00
9410;DHT22;4744;52.576;13.568;2023-09-07T06:58:03;20.20;1.00
9410;DHT22;4744;52.576;13.568;2023-09-07T07:00:30;20.30;1.00
9410;DHT22;4744;52.576;13.568;2023-09-07T07:02:56;20.40;1.00
9410;DHT22;4744;52.576;13.568;2023-09-07T07:05:24;20.40;1.00
9410;DHT22;4744;52.576;13.568;2023-09-07T07:07:53;20.50;1.00
9410;DHT22;4744;52.576;13.568;2023-09-07T07:10:20;20.60;1.00
9410;DHT22;4744;52.576;13.568;2023-09-07T07:12:50;20.60;1.00
9410;DHT22;4744;52.576;13.568;2023-09-07T07:15:25;20.80;1.00
9410;DHT22;4744;52.576;13.568;2023-09-07T07:17:58;20.80;1.00
9410;DHT22;4744;52.576;13.568;2023-09-07T07:20:33;20.90;1.00
9410;DHT22;4744;52.576;13.568;2023-09-07T07:23:00;20.90;1.00
9410;DHT22;4744;52.576;13.568;2023-09-07T07:25:32;21.00;1.00
9410;DHT22;4744;52.576;13.568;2023-09-07T07:28:05;21.10;1.00
9410;DHT22;4744;52.576;13.568;2023-09-07T07:30:37;21.10;1.00
9410;DHT22;4744;52.576;13.568;2023-09-07T07:33:36;21.20;1.00
9410;DHT22;4744;52.576;13.568;2023-09-07T07:36:19;21.40;1.00
9410;DHT22;4744;52.576;13.568;2023-09-07T07:38:59;21.50;1.00
9410;DHT22;4744;52.576;13.568;2023-09-07T07:41:26;21.60;1.00
9410;DHT22;4744;52.576;13.568;2023-09-07T07:43:53;21.70;1.00
9410;DHT22;4744;52.576;13.568;2023-09-07T07:46:24;21.90;1.00
9410;DHT22;4744;52.576;13.568;2023-09-07T07:48:51;22.00;1.00
9410;DHT22;4744;52.576;13.568;2023-09-07T07:51:19;22.20;1.00
9410;DHT22;4744;52.576;13.568;2023-09-07T07:53:50;22.60;1.00
9410;DHT22;4744;52.576;13.568;2023-09-07T07:56:18;23.10;1.00
9410;DHT22;4744;52.576;13.568;2023-09-07T07:58:54;24.20;1.00
9410;DHT22;4744;52.576;13.568;2023-09-07T08:01:25;26.10;1.00
9410;DHT22;4744;52.576;13.568;2023-09-07T08:03:52;27.50;1.00
9410;DHT22;4744;52.576;13.568;2023-09-07T08:06:20;28.70;1.00
9410;DHT22;4744;52.576;13.568;2023-09-07T08:08:47;29.30;1.00
9410;DHT22;4744;52.576;13.568;2023-09-07T08:11:20;29.00;1.00
9410;DHT22;4744;52.576;13.568;2023-09-07T08:13:52;28.20;1.00
9410;DHT22;4744;52.576;13.568;2023-09-07T08:16:21;27.30;1.00
9410;DHT22;4744;52.576;13.568;2023-09-07T08:18:51;26.70;1.00
9410;DHT22;4744;52.576;13.568;2023-09-07T08:21:19;26.20;1.00
9410;DHT22;4744;52.576;13.568;2023-09-07T08:23:46;25.90;1.00
9410;DHT22;4744;52.576;13.568;2023-09-07T08:26:17;25.70;1.00
9410;DHT22;4744;52.576;13.568;2023-09-07T08:28:46;25.40;1.00
9410;DHT22;4744;52.576;13.568;2023-09-07T08:31:13;25.10;1.00
9410;DHT22;4744;52.576;13.568;2023-09-07T08:33:47;24.80;1.00
9410;DHT22;4744;52.576;13.568;2023-09-07T08:36:17;24.70;1.00
9410;DHT22;4744;52.576;13.568;2023-09-07T08:38:48;24.50;1.00
9410;DHT22;4744;52.576;13.568;2023-09-07T08:41:17;24.50;1.00
9410;DHT22;4744;52.576;13.568;2023-09-07T08:43:45;24.50;1.00
9410;DHT22;4744;52.576;13.568;2023-09-07T08:46:15;24.50;1.00
9410;DHT22;4744;52.576;13.568;2023-09-07T08:48:46;24.60;1.00
9410;DHT22;4744;52.576;13.568;2023-09-07T08:51:17;25.00;1.00
9410;DHT22;4744;52.576;13.568;2023-09-07T08:53:46;25.10;1.00
9410;DHT22;4744;52.576;13.568;2023-09-07T08:56:20;25.20;1.00
9410;DHT22;4744;52.576;13.568;2023-09-07T08:58:48;25.30;1.00
9410;DHT22;4744;52.576;13.568;2023-09-07T09:01:15;25.30;1.00
9410;DHT22;4744;52.576;13.568;2023-09-07T09:03:42;25.30;1.00
9410;DHT22;4744;52.576;13.568;2023-09-07T09:06:31;25.30;1.00
9410;DHT22;4744;52.576;13.568;2023-09-07T09:09:21;25.40;1.00
9410;DHT22;4744;52.576;13.568;2023-09-07T09:11:48;25.50;1.00
9410;DHT22;4744;52.576;13.568;2023-09-07T09:14:17;25.60;1.00
9410;DHT22;4744;52.576;13.568;2023-09-07T09:16:48;25.90;1.00
9410;DHT22;4744;52.576;13.568;2023-09-07T09:19:18;26.10;1.00
9410;DHT22;4744;52.576;13.568;2023-09-07T09:21:55;26.20;1.00
9410;DHT22;4744;52.576;13.568;2023-09-07T09:24:32;26.40;1.00
9410;DHT22;4744;52.576;13.568;2023-09-07T09:27:00;26.50;1.00
9410;DHT22;4744;52.576;13.568;2023-09-07T09:29:27;26.60;1.00
9410;DHT22;4744;52.576;13.568;2023-09-07T09:31:54;26.70;1.00
9410;DHT22;4744;52.576;13.568;2023-09-07T09:34:21;26.70;1.00
9410;DHT22;4744;52.576;13.568;2023-09-07T09:36:49;26.80;1.00
9410;DHT22;4744;52.576;13.568;2023-09-07T09:39:23;27.20;1.00
9410;DHT22;4744;52.576;13.568;2023-09-07T09:41:50;27.40;1.00
9410;DHT22;4744;52.576;13.568;2023-09-07T09:44:19;27.40;1.00
9410;DHT22;4744;52.576;13.568;2023-09-07T09:46:47;27.50;1.00
9410;DHT22;4744;52.576;13.568;2023-09-07T09:49:17;27.60;1.00
9410;DHT22;4744;52.576;13.568;2023-09-07T09:51:52;27.60;1.00
9410;DHT22;4744;52.576;13.568;2023-09-07T09:54:20;27.60;1.00
9410;DHT22;4744;52.576;13.568;2023-09-07T09:56:47;27.70;1.00
9410;DHT22;4744;52.576;13.568;2023-09-07T09:59:15;28.00;1.00
9410;DHT22;4744;52.576;13.568;2023-09-07T10:01:54;28.30;1.00
9410;DHT22;4744;52.576;13.568;2023-09-07T10:04:22;28.70;1.00
9410;DHT22;4744;52.576;13.568;2023-09-07T10:06:58;29.10;1.00
9410;DHT22;4744;52.576;13.568;2023-09-07T10:09:44;29.40;1.00
9410;DHT22;4744;52.576;13.568;2023-09-07T10:12:27;29.70;1.00
9410;DHT22;4744;52.576;13.568;2023-09-07T10:14:54;29.80;1.00
9410;DHT22;4744;52.576;13.568;2023-09-07T10:17:22;29.90;1.00
9410;DHT22;4744;52.576;13.568;2023-09-07T10:20:04;29.90;1.00
9410;DHT22;4744;52.576;13.568;2023-09-07T10:22:32;30.00;1.00
9410;DHT22;4744;52.576;13.568;2023-09-07T10:24:59;30.20;1.00
9410;DHT22;4744;52.576;13.568;2023-09-07T10:27:36;29.80;1.00
9410;DHT22;4744;52.576;13.568;2023-09-07T10:30:10;29.80;1.00
9410;DHT22;4744;52.576;13.568;2023-09-07T10:32:38;29.90;1.00
9410;DHT22;4744;52.576;13.568;2023-09-07T10:35:15;30.10;1.00
9410;DHT22;4744;52.576;13.568;2023-09-07T10:37:45;30.40;1.00
9410;DHT22;4744;52.576;13.568;2023-09-07T10:40:18;30.60;1.00
9410;DHT22;4744;52.576;13.568;2023-09-07T10:43:21;30.60;1.00
9410;DHT22;4744;52.576;13.568;2023-09-07T10:45:53;30.70;1.00
9410;DHT22;4744;52.576;13.568;2023-09-07T10:48:20;30.80;1.00
9410;DHT22;4744;52.576;13.568;2023-09-07T10:50:47;30.70;1.00
9410;DHT22;4744;52.576;13.568;2023-09-07T10:53:29;30.70;1.00
9410;DHT22;4744;52.576;13.568;2023-09-07T10:55:58;30.70;1.00
9410;DHT22;4744;52.576;13.568;2023-09-07T10:58:26;30.70;1.00
9410;DHT22;4744;52.576;13.568;2023-09-07T11:00:54;30.70;1.00
9410;DHT22;4744;52.576;13.568;2023-09-07T11:03:21;30.70;1.00
9410;DHT22;4744;52.576;13.568;2023-09-07T11:05:48;30.70;1.00
9410;DHT22;4744;52.576;13.568;2023-09-07T11:08:20;30.70;99.90
9410;DHT22;4744;52.576;13.568;2023-09-07T11:10:50;30.60;99.90
9410;DHT22;4744;52.576;13.568;2023-09-07T11:13:17;30.50;99.90
9410;DHT22;4744;52.576;13.568;2023-09-07T11:15:44;30.40;99.90
9410;DHT22;4744;52.576;13.568;2023-09-07T11:18:11;30.30;99.90
9410;DHT22;4744;52.576;13.568;2023-09-07T11:20:39;30.20;99.90
9410;DHT22;4744;52.576;13.568;2023-09-07T11:23:06;30.10;1.00
9410;DHT22;4744;52.576;13.568;2023-09-07T11:25:45;30.00;99.90
9410;DHT22;4744;52.576;13.568;2023-09-07T11:28:16;29.80;99.90
9410;DHT22;4744;52.576;13.568;2023-09-07T11:30:49;29.70;99.90
9410;DHT22;4744;52.576;13.568;2023-09-07T11:33:17;29.60;99.90
9410;DHT22;4744;52.576;13.568;2023-09-07T11:35:44;29.50;1.00
9410;DHT22;4744;52.576;13.568;2023-09-07T11:38:13;29.40;99.90
9410;DHT22;4744;52.576;13.568;2023-09-07T11:40:56;29.30;99.90
9410;DHT22;4744;52.576;13.568;2023-09-07T11:43:28;29.20;99.90
9410;DHT22;4744;52.576;13.568;2023-09-07T11:46:04;29.10;99.90
9410;DHT22;4744;52.576;13.568;2023-09-07T11:48:40;29.00;99.90
9410;DHT22;4744;52.576;13.568;2023-09-07T11:51:10;28.90;99.90
9410;DHT22;4744;52.576;13.568;2023-09-07T11:53:37;28.80;99.90
9410;DHT22;4744;52.576;13.568;2023-09-07T11:56:04;28.80;99.90
9410;DHT22;4744;52.576;13.568;2023-09-07T11:58:32;28.70;1.00
9410;DHT22;4744;52.576;13.568;2023-09-07T12:00:59;28.80;1.00
9410;DHT22;4744;52.576;13.568;2023-09-07T12:03:26;28.90;1.00
9410;DHT22;4744;52.576;13.568;2023-09-07T12:06:05;29.00;1.00
9410;DHT22;4744;52.576;13.568;2023-09-07T12:08:36;29.00;1.00
9410;DHT22;4744;52.576;13.568;2023-09-07T12:11:11;29.00;1.00
9410;DHT22;4744;52.576;13.568;2023-09-07T12:13:39;28.90;1.00
9410;DHT22;4744;52.576;13.568;2023-09-07T12:16:06;28.90;1.00
9410;DHT22;4744;52.576;13.568;2023-09-07T12:18:44;28.80;1.00
9410;DHT22;4744;52.576;13.568;2023-09-07T12:21:15;28.80;1.00
9410;DHT22;4744;52.576;13.568;2023-09-07T12:23:42;28.80;1.00
9410;DHT22;4744;52.576;13.568;2023-09-07T12:26:08;28.80;1.00
9410;DHT22;4744;52.576;13.568;2023-09-07T12:28:35;28.80;1.00
9410;DHT22;4744;52.576;13.568;2023-09-07T12:31:04;28.80;1.00
9410;DHT22;4744;52.576;13.568;2023-09-07T12:33:31;28.80;1.00
9410;DHT22;4744;52.576;13.568;2023-09-07T12:35:58;28.80;1.00
9410;DHT22;4744;52.576;13.568;2023-09-07T12:38:25;28.80;1.00
9410;DHT22;4744;52.576;13.568;2023-09-07T12:40:54;28.80;1.00
9410;DHT22;4744;52.576;13.568;2023-09-07T12:43:21;28.80;1.00
9410;DHT22;4744;52.576;13.568;2023-09-07T12:45:50;28.90;99.90
9410;DHT22;4744;52.576;13.568;2023-09-07T12:50:45;28.90;99.90
9410;DHT22;4744;52.576;13.568;2023-09-07T12:53:12;29.00;1.00
9410;DHT22;4744;52.576;13.568;2023-09-07T12:55:39;29.10;99.90
9410;DHT22;4744;52.576;13.568;2023-09-07T12:58:06;29.20;99.90
9410;DHT22;4744;52.576;13.568;2023-09-07T13:00:33;29.40;99.90
9410;DHT22;4744;52.576;13.568;2023-09-07T13:03:04;29.50;99.90
9410;DHT22;4744;52.576;13.568;2023-09-07T13:05:38;29.50;1.00
9410;DHT22;4744;52.576;13.568;2023-09-07T13:08:05;29.50;99.90
9410;DHT22;4744;52.576;13.568;2023-09-07T13:10:32;29.50;99.90
9410;DHT22;4744;52.576;13.568;2023-09-07T13:12:59;29.50;99.90
9410;DHT22;4744;52.576;13.568;2023-09-07T13:15:26;29.40;99.90
9410;DHT22;4744;52.576;13.568;2023-09-07T13:17:53;29.50;99.90
9410;DHT22;4744;52.576;13.568;2023-09-07T13:20:29;29.50;99.90
9410;DHT22;4744;52.576;13.568;2023-09-07T13:23:03;29.50;99.90
9410;DHT22;4744;52.576;13.568;2023-09-07T13:25:31;29.50;99.90
9410;DHT22;4744;52.576;13.568;2023-09-07T13:28:02;29.50;99.90
9410;DHT22;4744;52.576;13.568;2023-09-07T13:30:32;29.60;99.90
9410;DHT22;4744;52.576;13.568;2023-09-07T13:33:00;29.60;99.90
9410;DHT22;4744;52.576;13.568;2023-09-07T13:35:28;29.50;1.00
9410;DHT22;4744;52.576;13.568;2023-09-07T13:37:55;29.50;99.90
9410;DHT22;4744;52.576;13.568;2023-09-07T13:40:23;29.50;99.90
9410;DHT22;4744;52.576;13.568;2023-09-07T13:42:58;29.50;1.00
9410;DHT22;4744;52.576;13.568;2023-09-07T13:45:30;29.60;99.90
9410;DHT22;4744;52.576;13.568;2023-09-07T13:47:57;29.70;99.90
9410;DHT22;4744;52.576;13.568;2023-09-07T13:50:26;29.70;99.90
9410;DHT22;4744;52.576;13.568;2023-09-07T13:53:05;29.70;99.90
9410;DHT22;4744;52.576;13.568;2023-09-07T13:55:49;29.70;99.90
9410;DHT22;4744;52.576;13.568;2023-09-07T13:58:19;29.70;99.90
9410;DHT22;4744;52.576;13.568;2023-09-07T14:00:46;29.60;99.90
9410;DHT22;4744;52.576;13.568;2023-09-07T14:03:13;29.60;99.90
9410;DHT22;4744;52.576;13.568;2023-09-07T14:05:43;29.60;99.90
9410;DHT22;4744;52.576;13.568;2023-09-07T14:08:12;29.50;99.90
9410;DHT22;4744;52.576;13.568;2023-09-07T14:10:41;29.50;99.90
9410;DHT22;4744;52.576;13.568;2023-09-07T14:13:07;29.40;99.90
9410;DHT22;4744;52.576;13.568;2023-09-07T14:15:47;29.40;99.90
9410;DHT22;4744;52.576;13.568;2023-09-07T14:18:15;29.30;99.90
9410;DHT22;4744;52.576;13.568;2023-09-07T14:20:42;29.20;99.90
9410;DHT22;4744;52.576;13.568;2023-09-07T14:23:14;29.10;99.90
9410;DHT22;4744;52.576;13.568;2023-09-07T14:25:47;29.10;99.90
9410;DHT22;4744;52.576;13.568;2023-09-07T14:28:14;29.10;99.90
9410;DHT22;4744;52.576;13.568;2023-09-07T14:30:53;29.10;99.90
9410;DHT22;4744;52.576;13.568;2023-09-07T14:33:20;29.00;99.90
9410;DHT22;4744;52.576;13.568;2023-09-07T14:35:59;29.00;99.90
9410;DHT22;4744;52.576;13.568;2023-09-07T14:38:26;28.90;99.90
9410;DHT22;4744;52.576;13.568;2023-09-07T14:41:08;29.00;99.90
9410;DHT22;4744;52.576;13.568;2023-09-07T14:43:37;29.00;99.90
9410;DHT22;4744;52.576;13.568;2023-09-07T14:46:04;28.90;99.90
9410;DHT22;4744;52.576;13.568;2023-09-07T14:48:31;28.90;99.90
9410;DHT22;4744;52.576;13.568;2023-09-07T14:50:58;28.80;99.90
9410;DHT22;4744;52.576;13.568;2023-09-07T14:53:32;28.80;99.90
9410;DHT22;4744;52.576;13.568;2023-09-07T14:56:02;28.80;99.90
9410;DHT22;4744;52.576;13.568;2023-09-07T14:58:35;28.80;99.90
9410;DHT22;4744;52.576;13.568;2023-09-07T15:01:03;28.70;99.90
9410;DHT22;4744;52.576;13.568;2023-09-07T15:03:36;28.80;99.90
9410;DHT22;4744;52.576;13.568;2023-09-07T15:06:05;28.70;99.90
9410;DHT22;4744;52.576;13.568;2023-09-07T15:08:32;28.70;99.90
9410;DHT22;4744;52.576;13.568;2023-09-07T15:11:11;28.60;99.90
9410;DHT22;4744;52.576;13.568;2023-09-07T15:13:38;28.60;99.90
9410;DHT22;4744;52.576;13.568;2023-09-07T15:16:19;28.60;99.90
9410;DHT22;4744;52.576;13.568;2023-09-07T15:18:45;28.60;99.90
9410;DHT22;4744;52.576;13.568;2023-09-07T15:21:17;28.60;99.90
9410;DHT22;4744;52.576;13.568;2023-09-07T15:23:44;28.50;99.90
9410;DHT22;4744;52.576;13.568;2023-09-07T15:26:14;28.50;99.90
9410;DHT22;4744;52.576;13.568;2023-09-07T15:28:43;28.50;99.90
9410;DHT22;4744;52.576;13.568;2023-09-07T15:31:13;28.40;99.90
9410;DHT22;4744;52.576;13.568;2023-09-07T15:33:41;28.30;99.90
9410;DHT22;4744;52.576;13.568;2023-09-07T15:36:11;28.20;99.90
9410;DHT22;4744;52.576;13.568;2023-09-07T15:38:43;28.10;1.00
9410;DHT22;4744;52.576;13.568;2023-09-07T15:41:18;28.00;99.90
9410;DHT22;4744;52.576;13.568;2023-09-07T15:43:44;28.00;99.90
9410;DHT22;4744;52.576;13.568;2023-09-07T15:46:11;27.90;1.00
9410;DHT22;4744;52.576;13.568;2023-09-07T15:48:45;27.90;99.90
9410;DHT22;4744;52.576;13.568;2023-09-07T15:51:16;27.90;99.90
9410;DHT22;4744;52.576;13.568;2023-09-07T15:53:54;27.80;1.00
9410;DHT22;4744;52.576;13.568;2023-09-07T15:56:25;27.80;99.90
9410;DHT22;4744;52.576;13.568;2023-09-07T15:59:30;27.70;99.90
9410;DHT22;4744;52.576;13.568;2023-09-07T16:02:06;27.70;99.90
9410;DHT22;4744;52.576;13.568;2023-09-07T16:04:44;27.60;99.90
9410;DHT22;4744;52.576;13.568;2023-09-07T16:07:11;27.60;99.90
9410;DHT22;4744;52.576;13.568;2023-09-07T16:09:38;27.50;99.90
9410;DHT22;4744;52.576;13.568;2023-09-07T16:12:20;27.50;99.90
9410;DHT22;4744;52.576;13.568;2023-09-07T16:15:09;27.40;1.00
9410;DHT22;4744;52.576;13.568;2023-09-07T16:17:39;27.40;99.90
9410;DHT22;4744;52.576;13.568;2023-09-07T16:20:24;27.30;1.00
9410;DHT22;4744;52.576;13.568;2023-09-07T16:22:52;27.30;99.90
9410;DHT22;4744;52.576;13.568;2023-09-07T16:25:19;27.20;99.90